Time;durP1;ratioP1;P1;durP2;ratioP2;P2;SDS_P1;SDS_P2;PMS_P1;PMS_P2;Temp;Humidity;BMP_temperature;BMP_pressure;BME280_temperature;BME280_humidity;BME280_pressure;Samples;Min_cycle;Max_cycle;Signal;HPM_P1;HPM_P2
2024/03/16 00:02:34;;;;;;;2.65;1.60;;;;;;;;;;6278350;28;20024;-81
2024/03/16 00:05:36;;;;;;;2.67;1.33;;;;;;;;;;6279081;28;20032;-81
2024/03/16 00:08:36;;;;;;;2.13;1.50;;;;;;;;;;6286498;28;20025;-81
2024/03/16 00:11:36;;;;;;;1.77;1.30;;;;;;;;;;6275667;28;20067;-81
2024/03/16 00:14:37;;;;;;;1.60;1.30;;;;;;;;;;6291215;28;20063;-81
2024/03/16 00:17:37;;;;;;;1.20;1.10;;;;;;;;;;6296216;28;20058;-81
2024/03/16 00:20:40;;;;;;;1.83;1.43;;;;;;;;;;6297870;28;20507;-79
2024/03/16 00:23:40;;;;;;;1.55;1.30;;;;;;;;;;6297745;28;20032;-81
2024/03/16 00:26:41;;;;;;;2.43;1.33;;;;;;;;;;6298720;28;20048;-81
2024/03/16 00:29:41;;;;;;;1.30;1.10;;;;;;;;;;6315206;28;20044;-81
2024/03/16 00:32:41;;;;;;;1.90;1.20;;;;;;;;;;6320952;28;20020;-81
2024/03/16 00:35:41;;;;;;;1.27;0.90;;;;;;;;;;6322937;28;20487;-81
2024/03/16 00:38:42;;;;;;;1.50;1.20;;;;;;;;;;6321581;28;20077;-81
2024/03/16 00:41:42;;;;;;;1.60;1.03;;;;;;;;;;6303088;28;20024;-81
2024/03/16 00:44:42;;;;;;;2.05;1.17;;;;;;;;;;6322273;28;20028;-81
2024/03/16 00:47:43;;;;;;;2.70;1.30;;;;;;;;;;6316972;28;20035;-82
2024/03/16 00:50:43;;;;;;;1.60;1.20;;;;;;;;;;6311172;28;20035;-81
2024/03/16 00:53:43;;;;;;;2.03;1.30;;;;;;;;;;6322269;28;20039;-81
2024/03/16 00:56:46;;;;;;;2.30;1.40;;;;;;;;;;6302767;28;20024;-82
2024/03/16 00:59:46;;;;;;;1.33;1.20;;;;;;;;;;6303006;28;20028;-81
2024/03/16 01:02:46;;;;;;;1.53;1.30;;;;;;;;;;6320161;28;20140;-81
2024/03/16 01:05:56;;;;;;;2.53;1.27;;;;;;;;;;6322049;28;20500;-81
2024/03/16 01:08:56;;;;;;;1.88;1.27;;;;;;;;;;6313459;28;20273;-81
2024/03/16 01:11:57;;;;;;;2.92;1.13;;;;;;;;;;6318730;28;20073;-80
2024/03/16 01:14:57;;;;;;;1.50;1.27;;;;;;;;;;6321385;28;20028;-80
2024/03/16 01:17:57;;;;;;;2.53;1.07;;;;;;;;;;6316234;28;20028;-80
2024/03/16 01:20:57;;;;;;;1.57;1.23;;;;;;;;;;6302468;28;20024;-81
2024/03/16 01:23:58;;;;;;;1.20;1.07;;;;;;;;;;6324384;28;20016;-80
2024/03/16 01:26:58;;;;;;;2.23;1.40;;;;;;;;;;6324829;28;20063;-80
2024/03/16 01:29:59;;;;;;;1.57;1.20;;;;;;;;;;6316814;28;20028;-79
2024/03/16 01:32:59;;;;;;;2.47;1.33;;;;;;;;;;6320079;28;20032;-80
2024/03/16 01:35:59;;;;;;;2.20;1.13;;;;;;;;;;6326052;28;20044;-80
2024/03/16 01:38:59;;;;;;;4.43;1.27;;;;;;;;;;6326013;28;20027;-80
2024/03/16 01:42:00;;;;;;;3.50;1.20;;;;;;;;;;6307225;28;20373;-79
2024/03/16 01:45:07;;;;;;;2.43;1.40;;;;;;;;;;6306171;28;20465;-80
2024/03/16 01:48:11;;;;;;;1.50;1.20;;;;;;;;;;6318462;28;20024;-80
2024/03/16 01:51:12;;;;;;;1.35;1.20;;;;;;;;;;6298707;28;20049;-79
2024/03/16 01:54:13;;;;;;;2.53;1.30;;;;;;;;;;6326069;28;20034;-80
2024/03/16 01:57:13;;;;;;;1.52;1.38;;;;;;;;;;6325341;28;20038;-80
2024/03/16 02:00:15;;;;;;;2.00;1.00;;;;;;;;;;6326038;28;20399;-80
2024/03/16 02:03:15;;;;;;;2.00;1.05;;;;;;;;;;6323578;28;20052;-80
2024/03/16 02:06:15;;;;;;;1.40;1.17;;;;;;;;;;6324021;28;20357;-82
2024/03/16 02:09:15;;;;;;;1.67;1.17;;;;;;;;;;6322653;28;20092;-80
2024/03/16 02:12:16;;;;;;;1.13;1.00;;;;;;;;;;6318498;28;20452;-80
2024/03/16 02:15:16;;;;;;;1.03;0.93;;;;;;;;;;6324813;28;20027;-81
2024/03/16 02:18:16;;;;;;;2.30;1.10;;;;;;;;;;6317884;28;20453;-80
2024/03/16 02:21:17;;;;;;;1.10;1.00;;;;;;;;;;6281816;28;20020;-81
2024/03/16 02:24:17;;;;;;;1.27;0.93;;;;;;;;;;6320085;28;20461;-80
2024/03/16 02:27:19;;;;;;;1.30;1.00;;;;;;;;;;6321442;28;20045;-81
2024/03/16 02:30:20;;;;;;;2.60;0.90;;;;;;;;;;6319873;28;20032;-80
2024/03/16 02:33:20;;;;;;;0.77;0.77;;;;;;;;;;6299897;28;20170;-80
2024/03/16 02:36:20;;;;;;;0.93;0.73;;;;;;;;;;6305324;28;20020;-80
2024/03/16 02:39:21;;;;;;;1.40;0.70;;;;;;;;;;6324404;28;20031;-80
2024/03/16 02:42:21;;;;;;;1.27;0.70;;;;;;;;;;6324231;28;20356;-80
2024/03/16 02:45:22;;;;;;;0.93;0.77;;;;;;;;;;6323810;28;20028;-80
2024/03/16 02:48:22;;;;;;;1.20;1.00;;;;;;;;;;6319418;28;20016;-81
2024/03/16 02:51:22;;;;;;;1.00;0.90;;;;;;;;;;6323446;28;20061;-80
2024/03/16 02:54:23;;;;;;;1.27;0.90;;;;;;;;;;6318231;28;20033;-80
2024/03/16 02:57:24;;;;;;;1.60;0.80;;;;;;;;;;6317930;28;20020;-80
2024/03/16 03:00:26;;;;;;;1.13;0.75;;;;;;;;;;6325288;28;20034;-80
2024/03/16 03:03:28;;;;;;;0.90;0.70;;;;;;;;;;6313140;28;20027;-80
2024/03/16 03:06:28;;;;;;;1.55;0.70;;;;;;;;;;6312865;28;20036;-81
2024/03/16 03:09:29;;;;;;;0.60;0.57;;;;;;;;;;6322402;28;20464;-79
2024/03/16 03:12:29;;;;;;;0.70;0.60;;;;;;;;;;6324879;28;20483;-79
2024/03/16 03:15:29;;;;;;;1.67;0.67;;;;;;;;;;6315454;28;20462;-79
2024/03/16 03:18:30;;;;;;;0.93;0.50;;;;;;;;;;6302971;28;20013;-79
2024/03/16 03:21:31;;;;;;;0.80;0.40;;;;;;;;;;6325199;28;20020;-79
2024/03/16 03:24:31;;;;;;;;;;;;;;;;;;6317515;28;20028;-79
2024/03/16 03:27:33;;;;;;;0.30;0.30;;;;;;;;;;6315007;28;19916;-79
2024/03/16 03:30:33;;;;;;;0.60;0.50;;;;;;;;;;6324308;28;20099;-80
2024/03/16 03:33:34;;;;;;;0.93;0.70;;;;;;;;;;6319873;28;20495;-79
2024/03/16 03:36:34;;;;;;;0.73;0.57;;;;;;;;;;6304476;28;20050;-80
2024/03/16 03:39:35;;;;;;;0.40;0.40;;;;;;;;;;6323393;28;20015;-79
2024/03/16 03:42:39;;;;;;;0.50;0.40;;;;;;;;;;6321212;28;20032;-80
2024/03/16 03:48:49;;;;;;;0.50;0.40;;;;;;;;;;6319765;28;20035;-80
2024/03/16 03:51:49;;;;;;;0.60;0.60;;;;;;;;;;6303916;28;20039;-80
2024/03/16 03:54:50;;;;;;;0.50;0.47;;;;;;;;;;6304241;28;20036;-79
2024/03/16 03:57:50;;;;;;;0.70;0.50;;;;;;;;;;6322646;28;20012;-79
2024/03/16 04:00:50;;;;;;;0.40;0.40;;;;;;;;;;6288316;28;20016;-80
2024/03/16 04:03:50;;;;;;;0.53;0.53;;;;;;;;;;6295070;28;20066;-80
2024/03/16 04:06:51;;;;;;;0.60;0.60;;;;;;;;;;6303637;28;20013;-80
2024/03/16 04:09:51;;;;;;;0.83;0.40;;;;;;;;;;6280313;28;20025;-79
2024/03/16 04:12:51;;;;;;;0.50;0.50;;;;;;;;;;6302554;28;20036;-79
2024/03/16 04:15:54;;;;;;;0.40;0.40;;;;;;;;;;6322425;28;20020;-80
2024/03/16 04:18:54;;;;;;;0.47;0.38;;;;;;;;;;6295055;28;20025;-79
2024/03/16 04:21:55;;;;;;;0.50;0.40;;;;;;;;;;6298738;28;20095;-80
2024/03/16 04:24:55;;;;;;;0.47;0.47;;;;;;;;;;6316438;28;20059;-79
2024/03/16 04:27:55;;;;;;;1.07;0.50;;;;;;;;;;6322603;28;20404;-79
2024/03/16 04:30:55;;;;;;;0.57;0.57;;;;;;;;;;6322402;28;20031;-79
2024/03/16 04:33:56;;;;;;;0.40;0.40;;;;;;;;;;6319756;28;20032;-80
2024/03/16 04:36:56;;;;;;;0.60;0.60;;;;;;;;;;6321898;28;20032;-80
2024/03/16 04:39:56;;;;;;;0.57;0.53;;;;;;;;;;6301537;28;20054;-79
2024/03/16 04:42:57;;;;;;;0.57;0.50;;;;;;;;;;6306541;28;20013;-80
2024/03/16 04:45:57;;;;;;;0.60;0.47;;;;;;;;;;6322052;28;20073;-82
2024/03/16 04:48:57;;;;;;;0.90;0.63;;;;;;;;;;6302309;28;20020;-80
2024/03/16 04:51:58;;;;;;;0.43;0.43;;;;;;;;;;6321948;28;20024;-80
2024/03/16 04:54:58;;;;;;;0.90;0.60;;;;;;;;;;6297362;28;20032;-80
2024/03/16 04:58:04;;;;;;;0.50;0.50;;;;;;;;;;6308601;28;20419;-80
2024/03/16 05:01:05;;;;;;;0.40;0.40;;;;;;;;;;6314524;28;20514;-80
2024/03/16 05:04:05;;;;;;;0.63;0.50;;;;;;;;;;6324988;28;20496;-80
2024/03/16 05:07:05;;;;;;;1.47;0.40;;;;;;;;;;6320569;28;20031;-80
2024/03/16 05:10:06;;;;;;;0.83;0.60;;;;;;;;;;6326315;28;20375;-80
2024/03/16 05:13:06;;;;;;;0.40;0.40;;;;;;;;;;6305958;28;20392;-80
2024/03/16 05:16:07;;;;;;;0.50;0.50;;;;;;;;;;6324774;28;20053;-80
2024/03/16 05:19:07;;;;;;;0.30;0.30;;;;;;;;;;6324682;28;20063;-80
2024/03/16 05:22:07;;;;;;;0.60;0.60;;;;;;;;;;6308185;28;20116;-80
2024/03/16 05:25:08;;;;;;;1.27;0.40;;;;;;;;;;6300260;28;20101;-80
2024/03/16 05:28:08;;;;;;;0.40;0.35;;;;;;;;;;6325247;28;20028;-78
2024/03/16 05:31:09;;;;;;;0.40;0.40;;;;;;;;;;6325982;28;20035;-79
2024/03/16 05:34:09;;;;;;;0.70;0.40;;;;;;;;;;6323409;28;20047;-78
2024/03/16 05:37:09;;;;;;;0.60;0.43;;;;;;;;;;6326622;28;20032;-80
2024/03/16 05:40:10;;;;;;;0.47;0.47;;;;;;;;;;6327143;28;20016;-79
2024/03/16 05:43:10;;;;;;;0.30;0.30;;;;;;;;;;6319947;28;20016;-80
2024/03/16 05:46:11;;;;;;;0.70;0.50;;;;;;;;;;6325974;28;20385;-79
2024/03/16 05:49:11;;;;;;;0.40;0.40;;;;;;;;;;6296643;28;20077;-80
2024/03/16 05:52:11;;;;;;;0.40;0.40;;;;;;;;;;6325114;28;20028;-80
2024/03/16 05:55:11;;;;;;;0.50;0.50;;;;;;;;;;6326686;28;20016;-80
2024/03/16 05:58:12;;;;;;;0.37;0.37;;;;;;;;;;6325336;28;20472;-78
2024/03/16 06:01:12;;;;;;;0.50;0.50;;;;;;;;;;6322785;28;20024;-80
2024/03/16 06:04:12;;;;;;;0.70;0.33;;;;;;;;;;6322612;28;20088;-78
2024/03/16 06:07:12;;;;;;;0.40;0.40;;;;;;;;;;6319786;28;20065;-80
2024/03/16 06:10:13;;;;;;;0.60;0.50;;;;;;;;;;6324464;28;20054;-80
2024/03/16 06:13:13;;;;;;;0.40;0.40;;;;;;;;;;6325729;28;20016;-80
2024/03/16 06:16:13;;;;;;;1.47;0.50;;;;;;;;;;6325008;28;20524;-80
2024/03/16 06:19:13;;;;;;;0.93;0.53;;;;;;;;;;6316805;28;20013;-79
2024/03/16 06:22:15;;;;;;;0.67;0.67;;;;;;;;;;6306051;28;20019;-80
2024/03/16 06:25:16;;;;;;;0.95;0.50;;;;;;;;;;6325465;28;20141;-81
2024/03/16 06:28:17;;;;;;;0.60;0.40;;;;;;;;;;6323898;28;20103;-80
2024/03/16 06:31:25;;;;;;;0.50;0.47;;;;;;;;;;6305064;28;20128;-80
2024/03/16 06:34:25;;;;;;;1.17;0.55;;;;;;;;;;6320247;28;20282;-80
2024/03/16 06:37:26;;;;;;;0.70;0.50;;;;;;;;;;6294195;28;20069;-78
2024/03/16 06:40:26;;;;;;;1.58;0.47;;;;;;;;;;6291345;28;20031;-79
2024/03/16 06:43:27;;;;;;;0.90;0.33;;;;;;;;;;6307108;28;20081;-82
2024/03/16 06:46:27;;;;;;;1.43;0.60;;;;;;;;;;6305860;28;20031;-83
2024/03/16 06:49:27;;;;;;;0.37;0.37;;;;;;;;;;6317600;28;20107;-79
2024/03/16 06:52:27;;;;;;;0.60;0.40;;;;;;;;;;6316856;28;20062;-81
2024/03/16 06:55:28;;;;;;;0.87;0.50;;;;;;;;;;6325483;28;20016;-80
2024/03/16 06:58:30;;;;;;;0.50;0.47;;;;;;;;;;6300450;28;20035;-80
2024/03/16 07:01:30;;;;;;;3.88;1.10;;;;;;;;;;6313893;28;20025;-80
2024/03/16 07:04:31;;;;;;;1.53;1.27;;;;;;;;;;6322674;28;20066;-80
2024/03/16 07:07:31;;;;;;;1.10;0.90;;;;;;;;;;6319362;28;20024;-80
2024/03/16 07:10:31;;;;;;;1.10;0.80;;;;;;;;;;6323092;28;20095;-80
2024/03/16 07:13:32;;;;;;;0.90;0.60;;;;;;;;;;6304721;28;20110;-80
2024/03/16 07:16:32;;;;;;;0.50;0.40;;;;;;;;;;6304354;28;20162;-80
2024/03/16 07:19:32;;;;;;;0.50;0.40;;;;;;;;;;6304612;28;20115;-80
2024/03/16 07:22:33;;;;;;;0.33;0.33;;;;;;;;;;6322427;28;20062;-80
2024/03/16 07:25:33;;;;;;;0.50;0.50;;;;;;;;;;6317001;28;20569;-80
2024/03/16 07:28:34;;;;;;;0.33;0.33;;;;;;;;;;6323185;28;20073;-80
2024/03/16 07:31:34;;;;;;;0.70;0.40;;;;;;;;;;6309034;28;20025;-81
2024/03/16 07:34:34;;;;;;;0.50;0.50;;;;;;;;;;6322000;28;20473;-80
2024/03/16 07:37:34;;;;;;;0.70;0.40;;;;;;;;;;6323255;28;20024;-80
2024/03/16 07:40:35;;;;;;;0.33;0.30;;;;;;;;;;6325213;28;20020;-80
2024/03/16 07:43:35;;;;;;;0.40;0.40;;;;;;;;;;6325025;28;20019;-80
2024/03/16 07:46:35;;;;;;;0.30;0.30;;;;;;;;;;6319994;28;20024;-80
2024/03/16 07:49:35;;;;;;;0.40;0.40;;;;;;;;;;6323382;28;20023;-80
2024/03/16 07:52:36;;;;;;;0.57;0.40;;;;;;;;;;6315827;28;20158;-80
2024/03/16 07:55:39;;;;;;;2.00;0.50;;;;;;;;;;6306384;28;20221;-80
2024/03/16 07:58:39;;;;;;;0.40;0.40;;;;;;;;;;6316342;28;20013;-80
2024/03/16 08:01:40;;;;;;;0.30;0.30;;;;;;;;;;6318063;28;20452;-80
2024/03/16 08:04:40;;;;;;;0.40;0.40;;;;;;;;;;6302682;28;20032;-79
2024/03/16 08:07:41;;;;;;;0.30;0.30;;;;;;;;;;6319887;28;20441;-84
2024/03/16 08:10:41;;;;;;;0.50;0.50;;;;;;;;;;6307947;28;20035;-83
2024/03/16 08:13:42;;;;;;;0.50;0.40;;;;;;;;;;6294176;28;20081;-83
2024/03/16 08:16:42;;;;;;;0.37;0.37;;;;;;;;;;6298860;28;20032;-80
2024/03/16 08:19:42;;;;;;;0.83;0.40;;;;;;;;;;6317800;28;20027;-80
2024/03/16 08:22:43;;;;;;;0.40;0.40;;;;;;;;;;6321393;28;20016;-81
2024/03/16 08:25:43;;;;;;;0.95;0.50;;;;;;;;;;6322403;28;20127;-77
2024/03/16 08:28:43;;;;;;;0.50;0.50;;;;;;;;;;6317876;28;20110;-77
2024/03/16 08:31:44;;;;;;;0.40;0.40;;;;;;;;;;6308031;28;20284;-77
2024/03/16 08:34:44;;;;;;;0.83;0.57;;;;;;;;;;6319649;28;20515;-77
2024/03/16 08:37:44;;;;;;;0.60;0.60;;;;;;;;;;6298749;28;20028;-77
2024/03/16 08:40:46;;;;;;;0.47;0.47;;;;;;;;;;6316305;28;20070;-77
2024/03/16 08:43:46;;;;;;;1.05;0.40;;;;;;;;;;6313555;28;20473;-77
2024/03/16 08:46:46;;;;;;;0.40;0.30;;;;;;;;;;6300296;28;20028;-77
2024/03/16 08:49:46;;;;;;;0.33;0.33;;;;;;;;;;6312071;28;20079;-77
2024/03/16 08:52:47;;;;;;;0.50;0.37;;;;;;;;;;6307370;28;20534;-77
2024/03/16 08:55:47;;;;;;;1.47;0.30;;;;;;;;;;6290289;28;20100;-76
2024/03/16 08:58:48;;;;;;;0.17;0.17;;;;;;;;;;6305120;28;20020;-76
2024/03/16 09:01:48;;;;;;;0.20;0.20;;;;;;;;;;6311058;28;20378;-76
2024/03/16 09:04:49;;;;;;;0.27;0.27;;;;;;;;;;6324408;28;20028;-76
2024/03/16 09:07:49;;;;;;;0.30;0.30;;;;;;;;;;6311661;28;20020;-77
2024/03/16 09:10:49;;;;;;;0.23;0.23;;;;;;;;;;6322462;28;20033;-76
2024/03/16 09:13:50;;;;;;;0.20;0.20;;;;;;;;;;6314571;28;20134;-76
2024/03/16 09:16:50;;;;;;;0.27;0.27;;;;;;;;;;6312376;28;20119;-76
2024/03/16 09:19:50;;;;;;;0.13;0.13;;;;;;;;;;6297922;28;20036;-76
2024/03/16 09:22:52;;;;;;;0.30;0.30;;;;;;;;;;6325808;28;20111;-76
2024/03/16 09:25:56;;;;;;;0.20;0.20;;;;;;;;;;6326581;28;20054;-76
2024/03/16 09:28:56;;;;;;;0.17;0.17;;;;;;;;;;6315354;28;20016;-76
2024/03/16 09:31:56;;;;;;;0.30;0.30;;;;;;;;;;6321663;28;20051;-76
2024/03/16 09:34:57;;;;;;;0.30;0.23;;;;;;;;;;6325057;28;20562;-76
2024/03/16 09:37:57;;;;;;;0.20;0.10;;;;;;;;;;6298511;28;20048;-76
2024/03/16 09:40:58;;;;;;;0.27;0.27;;;;;;;;;;6308297;28;20028;-76
2024/03/16 09:43:58;;;;;;;0.20;0.20;;;;;;;;;;6306740;28;20077;-76
2024/03/16 09:46:59;;;;;;;0.33;0.30;;;;;;;;;;6320233;28;20046;-76
2024/03/16 09:50:01;;;;;;;0.13;0.13;;;;;;;;;;6323269;28;20430;-76
2024/03/16 09:53:03;;;;;;;0.45;0.30;;;;;;;;;;6322173;28;20043;-76
2024/03/16 09:56:09;;;;;;;1.38;1.02;;;;;;;;;;6324595;28;20464;-76
2024/03/16 09:59:11;;;;;;;1.00;0.90;;;;;;;;;;6302850;28;20031;-77
2024/03/16 10:02:15;;;;;;;0.50;0.40;;;;;;;;;;6313758;28;20035;-77
2024/03/16 10:05:17;;;;;;;0.30;0.30;;;;;;;;;;6298942;28;20433;-83
2024/03/16 10:08:17;;;;;;;0.20;0.20;;;;;;;;;;6305377;28;20030;-76
2024/03/16 10:11:18;;;;;;;0.30;0.20;;;;;;;;;;6321631;28;20036;-77
2024/03/16 10:14:18;;;;;;;0.15;0.15;;;;;;;;;;6317158;28;20024;-77
2024/03/16 10:17:18;;;;;;;0.37;0.20;;;;;;;;;;6322419;28;20020;-76
2024/03/16 10:20:18;;;;;;;0.13;0.13;;;;;;;;;;6323649;28;20046;-77
2024/03/16 10:23:20;;;;;;;0.20;0.20;;;;;;;;;;6316123;28;20373;-76
2024/03/16 10:26:20;;;;;;;0.30;0.22;;;;;;;;;;6293359;28;20132;-77
2024/03/16 10:29:21;;;;;;;0.47;0.30;;;;;;;;;;6313397;28;20034;-77
2024/03/16 10:32:22;;;;;;;0.35;0.20;;;;;;;;;;6300833;28;20039;-78
2024/03/16 10:35:26;;;;;;;0.47;0.20;;;;;;;;;;6317361;28;20028;-81
2024/03/16 10:38:26;;;;;;;0.30;0.30;;;;;;;;;;6312488;28;20083;-80
2024/03/16 10:41:28;;;;;;;0.20;0.20;;;;;;;;;;6310642;28;20045;-81
2024/03/16 10:44:29;;;;;;;0.13;0.13;;;;;;;;;;6303228;28;20073;-80
2024/03/16 10:47:30;;;;;;;0.50;0.20;;;;;;;;;;6292928;28;20419;-80
2024/03/16 10:50:30;;;;;;;0.38;0.20;;;;;;;;;;6299531;28;20392;-80
2024/03/16 10:53:30;;;;;;;0.10;0.10;;;;;;;;;;6296521;28;20035;-79
2024/03/16 10:56:32;;;;;;;1.33;0.13;;;;;;;;;;6312411;28;20059;-81
2024/03/16 10:59:32;;;;;;;0.52;0.20;;;;;;;;;;6314177;28;20050;-81
2024/03/16 11:02:33;;;;;;;0.80;0.30;;;;;;;;;;6312127;28;20032;-81
2024/03/16 11:05:35;;;;;;;0.40;0.20;;;;;;;;;;6314419;28;20512;-81
2024/03/16 11:08:42;;;;;;;0.60;0.50;;;;;;;;;;5948280;28;9999821;-80
2024/03/16 11:11:43;;;;;;;0.82;0.57;;;;;;;;;;6307795;28;20481;-83
2024/03/16 11:14:43;;;;;;;0.50;0.50;;;;;;;;;;6309644;28;20031;-82
2024/03/16 11:17:43;;;;;;;;;;;;;;;;;;6316196;28;20461;-81
2024/03/16 11:20:44;;;;;;;0.22;0.22;;;;;;;;;;6307636;28;19981;-81
2024/03/16 11:23:47;;;;;;;0.20;0.20;;;;;;;;;;6297010;28;20474;-81
2024/03/16 11:26:49;;;;;;;0.65;0.30;;;;;;;;;;6317913;28;20547;-81
2024/03/16 11:29:59;;;;;;;0.22;0.20;;;;;;;;;;6309661;28;20060;-83
2024/03/16 11:33:17;;;;;;;0.20;0.20;;;;;;;;;;6310052;28;20074;-85
2024/03/16 11:36:18;;;;;;;0.30;0.30;;;;;;;;;;6294742;28;20396;-84
2024/03/16 11:39:25;;;;;;;1.00;0.30;;;;;;;;;;6314165;28;20036;-85
2024/03/16 11:42:25;;;;;;;0.98;0.50;;;;;;;;;;6310966;28;20047;-84
2024/03/16 11:45:26;;;;;;;0.40;0.30;;;;;;;;;;6300039;28;20033;-83
2024/03/16 11:48:26;;;;;;;;;;;;;;;;;;6305535;28;20496;-83
2024/03/16 11:51:28;;;;;;;0.35;0.20;;;;;;;;;;6313907;28;19938;-85
2024/03/16 11:54:29;;;;;;;0.30;0.20;;;;;;;;;;6312309;28;20036;-85
2024/03/16 11:57:30;;;;;;;0.30;0.28;;;;;;;;;;6305861;28;20097;-80
2024/03/16 12:00:30;;;;;;;0.90;0.30;;;;;;;;;;6296873;28;20063;-78
2024/03/16 12:03:31;;;;;;;;;;;;;;;;;;6298151;28;20115;-77
2024/03/16 12:06:32;;;;;;;0.60;0.20;;;;;;;;;;6313320;28;19988;-78
2024/03/16 12:09:36;;;;;;;0.22;0.22;;;;;;;;;;6311032;28;20035;-80
2024/03/16 12:12:37;;;;;;;1.08;0.40;;;;;;;;;;6310245;28;20028;-80
2024/03/16 12:15:37;;;;;;;0.25;0.20;;;;;;;;;;6306999;28;20157;-81
2024/03/16 12:18:37;;;;;;;;;;;;;;;;;;6309857;28;20040;-81
2024/03/16 12:21:41;;;;;;;0.30;0.30;;;;;;;;;;6308163;28;20320;-80
2024/03/16 12:24:41;;;;;;;0.55;0.40;;;;;;;;;;6297360;28;20139;-78
2024/03/16 12:27:42;;;;;;;0.60;0.30;;;;;;;;;;6311494;28;20056;-77
2024/03/16 12:30:42;;;;;;;;;;;;;;;;;;6309850;28;20111;-78
2024/03/16 12:33:43;;;;;;;0.13;0.10;;;;;;;;;;6302119;28;20044;-78
2024/03/16 12:36:43;;;;;;;0.50;0.30;;;;;;;;;;6314865;28;20031;-78
2024/03/16 12:39:43;;;;;;;;;;;;;;;;;;6315944;28;20044;-78
2024/03/16 12:42:43;;;;;;;0.93;0.20;;;;;;;;;;6306285;28;19912;-78
2024/03/16 12:45:44;;;;;;;1.33;1.13;;;;;;;;;;6316981;28;20024;-78
2024/03/16 12:48:44;;;;;;;;;;;;;;;;;;6308189;28;20411;-78
2024/03/16 12:51:46;;;;;;;1.13;0.65;;;;;;;;;;6317501;28;19919;-78
2024/03/16 12:54:46;;;;;;;0.73;0.40;;;;;;;;;;6313220;28;20028;-77
2024/03/16 12:57:47;;;;;;;0.90;0.40;;;;;;;;;;6308593;28;20448;-79
2024/03/16 13:00:47;;;;;;;;;;;;;;;;;;6310624;28;20601;-77
2024/03/16 13:03:49;;;;;;;0.45;0.20;;;;;;;;;;6305611;28;20130;-78
2024/03/16 13:06:50;;;;;;;0.40;0.20;;;;;;;;;;6306637;28;20369;-78
2024/03/16 13:09:52;;;;;;;0.30;0.20;;;;;;;;;;6293075;28;20029;-77
2024/03/16 13:12:52;;;;;;;0.20;0.20;;;;;;;;;;6307790;28;20027;-78
2024/03/16 13:15:53;;;;;;;0.47;0.20;;;;;;;;;;6311861;28;20021;-77
2024/03/16 13:18:55;;;;;;;;;;;;;;;;;;6307620;28;20048;-78
2024/03/16 13:21:56;;;;;;;0.20;0.20;;;;;;;;;;6313123;28;19916;-77
2024/03/16 13:24:56;;;;;;;0.20;0.20;;;;;;;;;;6297644;28;20108;-77
2024/03/16 13:27:56;;;;;;;;;;;;;;;;;;6309395;28;20290;-78
2024/03/16 13:30:57;;;;;;;0.30;0.20;;;;;;;;;;6313285;28;20435;-78
2024/03/16 13:33:58;;;;;;;;;;;;;;;;;;6315707;28;20031;-78
2024/03/16 13:37:02;;;;;;;0.20;0.20;;;;;;;;;;6317988;28;19916;-78
2024/03/16 13:40:03;;;;;;;0.98;0.30;;;;;;;;;;6313144;28;20481;-78
2024/03/16 13:43:04;;;;;;;0.52;0.20;;;;;;;;;;6306654;28;20024;-78
2024/03/16 13:46:04;;;;;;;0.20;0.20;;;;;;;;;;6291169;28;20074;-78
2024/03/16 13:49:05;;;;;;;0.25;0.25;;;;;;;;;;6312148;28;20262;-78
2024/03/16 13:52:05;;;;;;;1.00;0.63;;;;;;;;;;6312893;28;20048;-78
2024/03/16 13:55:06;;;;;;;0.80;0.80;;;;;;;;;;6308913;28;20491;-77
2024/03/16 13:58:08;;;;;;;;;;;;;;;;;;6307581;28;20410;-77
2024/03/16 14:01:08;;;;;;;0.30;0.30;;;;;;;;;;6313529;28;20006;-77
2024/03/16 14:04:09;;;;;;;0.30;0.30;;;;;;;;;;6311318;28;20089;-78
2024/03/16 14:07:09;;;;;;;;;;;;;;;;;;6315705;28;20107;-77
2024/03/16 14:10:09;;;;;;;0.40;0.28;;;;;;;;;;6319154;28;19993;-78
2024/03/16 14:13:10;;;;;;;;;;;;;;;;;;6314313;28;20479;-77
2024/03/16 14:16:11;;;;;;;0.30;0.30;;;;;;;;;;6297767;28;19923;-78
2024/03/16 14:19:12;;;;;;;;;;;;;;;;;;6316561;28;20008;-78
2024/03/16 14:22:12;;;;;;;0.43;0.20;;;;;;;;;;6307653;28;20336;-78
2024/03/16 14:25:12;;;;;;;;;;;;;;;;;;6319013;28;20024;-77
2024/03/16 14:28:13;;;;;;;0.30;0.20;;;;;;;;;;6311009;28;20401;-77
2024/03/16 14:31:14;;;;;;;;;;;;;;;;;;6314383;28;20028;-77
2024/03/16 14:34:14;;;;;;;0.20;0.10;;;;;;;;;;6308415;28;19912;-78
2024/03/16 14:37:14;;;;;;;;;;;;;;;;;;6311251;28;20016;-77
2024/03/16 14:40:21;;;;;;;0.95;0.73;;;;;;;;;;6309743;28;19912;-77
2024/03/16 14:43:22;;;;;;;1.55;0.90;;;;;;;;;;6317210;28;20065;-78
2024/03/16 14:46:22;;;;;;;1.02;0.77;;;;;;;;;;6303682;28;20055;-78
2024/03/16 14:49:24;;;;;;;;;;;;;;;;;;6307451;28;20054;-78
2024/03/16 14:52:24;;;;;;;0.32;0.20;;;;;;;;;;6313557;28;20809;-78
2024/03/16 14:55:24;;;;;;;;;;;;;;;;;;6315059;28;20028;-78
2024/03/16 14:58:25;;;;;;;0.10;0.10;;;;;;;;;;6309780;28;20288;-78
2024/03/16 15:01:25;;;;;;;;;;;;;;;;;;6320318;28;20028;-78
2024/03/16 15:04:27;;;;;;;0.40;0.20;;;;;;;;;;6317600;28;19908;-78
2024/03/16 15:07:28;;;;;;;0.40;0.20;;;;;;;;;;6306498;28;20560;-79
2024/03/16 15:10:29;;;;;;;0.40;0.20;;;;;;;;;;6314847;28;20039;-77
2024/03/16 15:13:29;;;;;;;;;;;;;;;;;;6311242;28;20412;-76
2024/03/16 15:16:30;;;;;;;0.15;0.15;;;;;;;;;;6310579;28;19915;-77
2024/03/16 15:19:30;;;;;;;0.17;0.17;;;;;;;;;;6295021;28;20012;-76
2024/03/16 15:22:30;;;;;;;;;;;;;;;;;;6306798;28;20032;-76
2024/03/16 15:25:39;;;;;;;0.22;0.20;;;;;;;;;;6305473;28;19919;-77
2024/03/16 15:28:49;;;;;;;0.20;0.20;;;;;;;;;;6309101;28;20118;-76
2024/03/16 15:31:49;;;;;;;0.20;0.20;;;;;;;;;;6310684;28;20460;-77
2024/03/16 15:34:51;;;;;;;0.10;0.10;;;;;;;;;;6313461;28;20070;-76
2024/03/16 15:37:51;;;;;;;0.20;0.20;;;;;;;;;;6310129;28;20024;-77
2024/03/16 15:40:51;;;;;;;0.20;0.20;;;;;;;;;;6304397;28;20530;-77
2024/03/16 15:43:52;;;;;;;0.93;0.13;;;;;;;;;;6304710;28;20396;-77
2024/03/16 15:46:53;;;;;;;0.40;0.20;;;;;;;;;;6315864;28;20028;-77
2024/03/16 15:49:53;;;;;;;1.52;1.00;;;;;;;;;;6309719;28;20043;-78
2024/03/16 15:52:53;;;;;;;0.87;0.83;;;;;;;;;;6307195;28;20127;-76
2024/03/16 15:55:53;;;;;;;0.50;0.50;;;;;;;;;;6304055;28;20058;-76
2024/03/16 15:58:54;;;;;;;0.30;0.30;;;;;;;;;;6294763;28;20028;-78
2024/03/16 16:01:54;;;;;;;0.30;0.30;;;;;;;;;;6302124;28;20025;-77
2024/03/16 16:04:54;;;;;;;0.10;0.10;;;;;;;;;;6318179;28;20028;-77
2024/03/16 16:07:54;;;;;;;0.57;0.27;;;;;;;;;;6296676;28;20024;-76
2024/03/16 16:10:55;;;;;;;0.63;0.23;;;;;;;;;;6315293;28;20028;-76
2024/03/16 16:13:55;;;;;;;0.17;0.17;;;;;;;;;;6305321;28;20023;-77
2024/03/16 16:16:55;;;;;;;0.13;0.13;;;;;;;;;;6287396;28;20062;-82
2024/03/16 16:19:55;;;;;;;0.10;0.10;;;;;;;;;;6311946;28;20020;-77
2024/03/16 16:22:56;;;;;;;0.67;0.60;;;;;;;;;;6309011;28;20078;-77
2024/03/16 16:25:56;;;;;;;1.20;1.00;;;;;;;;;;6312389;28;20040;-76
2024/03/16 16:28:56;;;;;;;1.57;0.90;;;;;;;;;;6305233;28;20107;-77
2024/03/16 16:31:56;;;;;;;1.00;0.90;;;;;;;;;;6307632;28;20444;-75
2024/03/16 16:34:57;;;;;;;0.70;0.60;;;;;;;;;;6308717;28;20035;-77
2024/03/16 16:37:57;;;;;;;0.30;0.30;;;;;;;;;;6309382;28;20020;-77
2024/03/16 16:40:57;;;;;;;0.30;0.30;;;;;;;;;;6307325;28;20047;-77
2024/03/16 16:43:57;;;;;;;0.30;0.20;;;;;;;;;;6312755;28;20036;-77
2024/03/16 16:46:58;;;;;;;0.63;0.20;;;;;;;;;;6301640;28;20039;-77
2024/03/16 16:50:00;;;;;;;0.20;0.20;;;;;;;;;;6307191;28;20115;-76
2024/03/16 16:53:01;;;;;;;0.20;0.20;;;;;;;;;;6306554;28;20427;-78
2024/03/16 16:56:02;;;;;;;;;;;;;;;;;;6300923;28;20075;-79
2024/03/16 16:59:02;;;;;;;1.50;0.53;;;;;;;;;;6303931;28;20372;-77
2024/03/16 17:02:05;;;;;;;2.13;1.57;;;;;;;;;;6317061;28;20024;-76
2024/03/16 17:05:05;;;;;;;1.80;1.35;;;;;;;;;;6317424;28;20033;-76
2024/03/16 17:08:06;;;;;;;1.35;0.90;;;;;;;;;;6299877;28;20028;-77
2024/03/16 17:11:12;;;;;;;1.07;0.50;;;;;;;;;;6311711;28;20032;-78
2024/03/16 17:14:12;;;;;;;0.57;0.50;;;;;;;;;;6299759;28;20105;-77
2024/03/16 17:17:12;;;;;;;1.70;1.23;;;;;;;;;;6303363;28;20032;-80
2024/03/16 17:20:21;;;;;;;1.83;1.33;;;;;;;;;;6315939;28;20107;-80
2024/03/16 17:23:21;;;;;;;1.58;0.90;;;;;;;;;;6297115;28;20048;-78
2024/03/16 17:26:23;;;;;;;0.40;0.40;;;;;;;;;;6313980;28;20060;-79
2024/03/16 17:29:23;;;;;;;0.40;0.40;;;;;;;;;;6298329;28;20559;-80
2024/03/16 17:32:23;;;;;;;0.47;0.40;;;;;;;;;;6299882;28;20113;-80
2024/03/16 17:35:23;;;;;;;0.30;0.30;;;;;;;;;;6313852;28;20052;-80
2024/03/16 17:38:24;;;;;;;0.20;0.20;;;;;;;;;;6323129;28;20358;-82
2024/03/16 17:41:25;;;;;;;0.30;0.30;;;;;;;;;;6313600;28;20081;-81
2024/03/16 17:44:26;;;;;;;0.30;0.20;;;;;;;;;;6301097;28;20058;-81
2024/03/16 17:47:26;;;;;;;0.43;0.20;;;;;;;;;;6314890;28;20027;-79
2024/03/16 17:50:27;;;;;;;0.30;0.20;;;;;;;;;;6318478;28;20036;-83
2024/03/16 17:53:28;;;;;;;0.50;0.30;;;;;;;;;;6323415;28;20377;-82
2024/03/16 17:56:29;;;;;;;;;;;;;;;;;;6313047;28;20433;-83
2024/03/16 17:59:29;;;;;;;0.27;0.17;;;;;;;;;;6319834;28;19908;-80
2024/03/16 18:02:31;;;;;;;0.10;0.10;;;;;;;;;;6322331;28;20273;-80
2024/03/16 18:05:31;;;;;;;0.10;0.10;;;;;;;;;;6297883;28;20028;-80
2024/03/16 18:08:31;;;;;;;0.50;0.30;;;;;;;;;;6323148;28;20053;-77
2024/03/16 18:11:32;;;;;;;0.10;0.10;;;;;;;;;;6323272;28;20031;-77
2024/03/16 18:14:41;;;;;;;0.17;0.10;;;;;;;;;;6301693;28;20047;-89
2024/03/16 18:17:42;;;;;;;0.17;0.13;;;;;;;;;;6319108;28;20043;-88